sensor_id;sensor_type;location;lat;lon;timestamp;P1;durP1;ratioP1;P2;durP2;ratioP2
23590;SDS011;11973;52.098;7.582;2023-02-04T00:00:56;31.98;;;5.95;;
23590;SDS011;11973;52.098;7.582;2023-02-04T00:03:22;31.00;;;6.00;;
23590;SDS011;11973;52.098;7.582;2023-02-04T00:05:47;36.50;;;6.30;;
23590;SDS011;11973;52.098;7.582;2023-02-04T00:08:13;30.00;;;6.00;;
23590;SDS011;11973;52.098;7.582;2023-02-04T00:10:39;33.80;;;5.93;;
23590;SDS011;11973;52.098;7.582;2023-02-04T00:13:05;42.75;;;6.60;;
23590;SDS011;11973;52.098;7.582;2023-02-04T00:15:30;34.30;;;6.20;;
23590;SDS011;11973;52.098;7.582;2023-02-04T00:17:56;34.03;;;6.50;;
23590;SDS011;11973;52.098;7.582;2023-02-04T00:20:22;35.42;;;6.28;;
23590;SDS011;11973;52.098;7.582;2023-02-04T00:22:48;33.15;;;7.05;;
23590;SDS011;11973;52.098;7.582;2023-02-04T00:25:15;34.38;;;6.70;;
23590;SDS011;11973;52.098;7.582;2023-02-04T00:27:41;33.75;;;5.80;;
23590;SDS011;11973;52.098;7.582;2023-02-04T00:30:07;36.65;;;6.13;;
23590;SDS011;11973;52.098;7.582;2023-02-04T00:32:33;35.03;;;6.10;;
23590;SDS011;11973;52.098;7.582;2023-02-04T00:34:59;36.33;;;6.72;;
23590;SDS011;11973;52.098;7.582;2023-02-04T00:37:28;37.85;;;7.05;;
23590;SDS011;11973;52.098;7.582;2023-02-04T00:39:55;30.98;;;5.47;;
23590;SDS011;11973;52.098;7.582;2023-02-04T00:42:21;41.38;;;7.25;;
23590;SDS011;11973;52.098;7.582;2023-02-04T00:44:47;27.77;;;5.72;;
23590;SDS011;11973;52.098;7.582;2023-02-04T00:47:13;31.95;;;6.40;;
23590;SDS011;11973;52.098;7.582;2023-02-04T00:49:39;32.25;;;6.35;;
23590;SDS011;11973;52.098;7.582;2023-02-04T00:52:04;34.22;;;6.55;;
23590;SDS011;11973;52.098;7.582;2023-02-04T00:54:30;35.85;;;6.60;;
23590;SDS011;11973;52.098;7.582;2023-02-04T00:56:56;29.45;;;5.47;;
23590;SDS011;11973;52.098;7.582;2023-02-04T00:59:22;30.08;;;6.32;;
23590;SDS011;11973;52.098;7.582;2023-02-04T01:01:48;31.63;;;6.72;;
23590;SDS011;11973;52.098;7.582;2023-02-04T01:04:15;29.52;;;6.53;;
23590;SDS011;11973;52.098;7.582;2023-02-04T01:06:42;40.33;;;6.50;;
23590;SDS011;11973;52.098;7.582;2023-02-04T01:09:09;36.75;;;6.20;;
23590;SDS011;11973;52.098;7.582;2023-02-04T01:11:35;36.13;;;6.32;;
23590;SDS011;11973;52.098;7.582;2023-02-04T01:14:01;34.75;;;6.10;;
23590;SDS011;11973;52.098;7.582;2023-02-04T01:16:27;34.97;;;6.30;;
23590;SDS011;11973;52.098;7.582;2023-02-04T01:18:53;32.03;;;6.47;;
23590;SDS011;11973;52.098;7.582;2023-02-04T01:21:21;36.50;;;6.72;;
23590;SDS011;11973;52.098;7.582;2023-02-04T01:23:50;33.25;;;6.60;;
23590;SDS011;11973;52.098;7.582;2023-02-04T01:26:16;35.40;;;6.40;;
23590;SDS011;11973;52.098;7.582;2023-02-04T01:28:43;36.15;;;7.28;;
23590;SDS011;11973;52.098;7.582;2023-02-04T01:31:09;39.28;;;6.78;;
23590;SDS011;11973;52.098;7.582;2023-02-04T01:33:35;33.55;;;7.50;;
23590;SDS011;11973;52.098;7.582;2023-02-04T01:36:00;31.95;;;6.50;;
23590;SDS011;11973;52.098;7.582;2023-02-04T01:38:27;35.55;;;7.15;;
23590;SDS011;11973;52.098;7.582;2023-02-04T01:40:53;35.13;;;6.32;;
23590;SDS011;11973;52.098;7.582;2023-02-04T01:43:21;28.13;;;6.18;;
23590;SDS011;11973;52.098;7.582;2023-02-04T01:45:48;33.78;;;6.25;;
23590;SDS011;11973;52.098;7.582;2023-02-04T01:48:14;29.40;;;6.45;;
23590;SDS011;11973;52.098;7.582;2023-02-04T01:50:51;30.08;;;6.80;;
23590;SDS011;11973;52.098;7.582;2023-02-04T01:53:26;39.65;;;6.63;;
23590;SDS011;11973;52.098;7.582;2023-02-04T01:55:52;41.83;;;6.70;;
23590;SDS011;11973;52.098;7.582;2023-02-04T01:58:18;28.00;;;5.65;;
23590;SDS011;11973;52.098;7.582;2023-02-04T02:00:44;34.65;;;6.57;;
23590;SDS011;11973;52.098;7.582;2023-02-04T02:03:10;32.17;;;6.55;;
23590;SDS011;11973;52.098;7.582;2023-02-04T02:08:09;42.20;;;7.60;;
23590;SDS011;11973;52.098;7.582;2023-02-04T02:10:37;32.75;;;6.63;;
23590;SDS011;11973;52.098;7.582;2023-02-04T02:13:04;35.17;;;6.78;;
23590;SDS011;11973;52.098;7.582;2023-02-04T02:15:36;42.47;;;7.07;;
23590;SDS011;11973;52.098;7.582;2023-02-04T02:18:04;32.75;;;5.57;;
23590;SDS011;11973;52.098;7.582;2023-02-04T02:20:30;29.45;;;6.25;;
23590;SDS011;11973;52.098;7.582;2023-02-04T02:25:43;35.55;;;6.03;;
23590;SDS011;11973;52.098;7.582;2023-02-04T02:28:14;34.40;;;6.65;;
23590;SDS011;11973;52.098;7.582;2023-02-04T02:30:41;27.50;;;6.18;;
23590;SDS011;11973;52.098;7.582;2023-02-04T02:33:15;34.78;;;6.43;;
23590;SDS011;11973;52.098;7.582;2023-02-04T02:35:43;37.22;;;6.95;;
23590;SDS011;11973;52.098;7.582;2023-02-04T02:38:12;33.13;;;6.68;;
23590;SDS011;11973;52.098;7.582;2023-02-04T02:40:40;31.55;;;6.93;;
23590;SDS011;11973;52.098;7.582;2023-02-04T02:43:07;38.22;;;7.53;;
23590;SDS011;11973;52.098;7.582;2023-02-04T02:45:39;35.50;;;6.82;;
23590;SDS011;11973;52.098;7.582;2023-02-04T02:48:04;27.98;;;6.30;;
23590;SDS011;11973;52.098;7.582;2023-02-04T02:50:31;35.95;;;6.63;;
23590;SDS011;11973;52.098;7.582;2023-02-04T02:52:59;31.63;;;6.20;;
23590;SDS011;11973;52.098;7.582;2023-02-04T02:55:25;37.85;;;6.78;;
23590;SDS011;11973;52.098;7.582;2023-02-04T02:57:52;38.17;;;6.88;;
23590;SDS011;11973;52.098;7.582;2023-02-04T03:00:23;38.30;;;6.03;;
23590;SDS011;11973;52.098;7.582;2023-02-04T03:05:42;36.25;;;6.50;;
23590;SDS011;11973;52.098;7.582;2023-02-04T03:08:11;43.40;;;7.18;;
23590;SDS011;11973;52.098;7.582;2023-02-04T03:10:39;35.22;;;6.47;;
23590;SDS011;11973;52.098;7.582;2023-02-04T03:13:05;39.03;;;6.60;;
23590;SDS011;11973;52.098;7.582;2023-02-04T03:15:31;32.30;;;5.95;;
23590;SDS011;11973;52.098;7.582;2023-02-04T03:17:58;40.92;;;6.82;;
23590;SDS011;11973;52.098;7.582;2023-02-04T03:20:25;31.75;;;5.97;;
23590;SDS011;11973;52.098;7.582;2023-02-04T03:22:52;38.03;;;6.50;;
23590;SDS011;11973;52.098;7.582;2023-02-04T03:25:19;43.67;;;7.25;;
23590;SDS011;11973;52.098;7.582;2023-02-04T03:27:50;31.95;;;6.60;;
23590;SDS011;11973;52.098;7.582;2023-02-04T03:30:20;35.85;;;6.25;;
23590;SDS011;11973;52.098;7.582;2023-02-04T03:32:46;42.60;;;7.00;;
23590;SDS011;11973;52.098;7.582;2023-02-04T03:35:12;41.90;;;6.95;;
23590;SDS011;11973;52.098;7.582;2023-02-04T03:37:37;37.13;;;6.72;;
23590;SDS011;11973;52.098;7.582;2023-02-04T03:40:04;47.05;;;7.45;;
23590;SDS011;11973;52.098;7.582;2023-02-04T03:42:30;42.38;;;6.28;;
23590;SDS011;11973;52.098;7.582;2023-02-04T03:44:56;33.17;;;6.15;;
23590;SDS011;11973;52.098;7.582;2023-02-04T03:47:22;38.78;;;7.55;;
23590;SDS011;11973;52.098;7.582;2023-02-04T03:49:47;47.95;;;6.82;;
23590;SDS011;11973;52.098;7.582;2023-02-04T03:52:13;35.90;;;6.60;;
23590;SDS011;11973;52.098;7.582;2023-02-04T03:54:39;44.78;;;7.07;;
23590;SDS011;11973;52.098;7.582;2023-02-04T03:57:04;37.35;;;6.32;;
23590;SDS011;11973;52.098;7.582;2023-02-04T03:59:30;38.40;;;6.47;;
23590;SDS011;11973;52.098;7.582;2023-02-04T04:01:56;37.85;;;6.82;;
23590;SDS011;11973;52.098;7.582;2023-02-04T04:04:22;35.22;;;6.25;;
23590;SDS011;11973;52.098;7.582;2023-02-04T04:06:47;27.60;;;6.20;;
23590;SDS011;11973;52.098;7.582;2023-02-04T04:09:13;36.60;;;6.97;;
23590;SDS011;11973;52.098;7.582;2023-02-04T04:11:39;38.25;;;6.78;;
23590;SDS011;11973;52.098;7.582;2023-02-04T04:14:05;34.58;;;7.03;;
23590;SDS011;11973;52.098;7.582;2023-02-04T04:16:30;34.00;;;6.45;;
23590;SDS011;11973;52.098;7.582;2023-02-04T04:18:56;35.85;;;7.10;;
23590;SDS011;11973;52.098;7.582;2023-02-04T04:21:22;41.50;;;6.53;;
23590;SDS011;11973;52.098;7.582;2023-02-04T04:23:47;35.35;;;6.40;;
23590;SDS011;11973;52.098;7.582;2023-02-04T04:26:13;36.90;;;6.25;;
23590;SDS011;11973;52.098;7.582;2023-02-04T04:28:39;42.95;;;6.68;;
23590;SDS011;11973;52.098;7.582;2023-02-04T04:31:04;34.00;;;6.03;;
23590;SDS011;11973;52.098;7.582;2023-02-04T04:33:30;44.55;;;7.20;;
23590;SDS011;11973;52.098;7.582;2023-02-04T04:35:56;38.83;;;6.40;;
23590;SDS011;11973;52.098;7.582;2023-02-04T04:38:22;39.30;;;6.97;;
23590;SDS011;11973;52.098;7.582;2023-02-04T04:40:47;48.88;;;7.70;;
23590;SDS011;11973;52.098;7.582;2023-02-04T04:43:14;41.92;;;6.78;;
23590;SDS011;11973;52.098;7.582;2023-02-04T04:45:39;42.03;;;7.05;;
23590;SDS011;11973;52.098;7.582;2023-02-04T04:48:05;33.15;;;6.70;;
23590;SDS011;11973;52.098;7.582;2023-02-04T04:50:31;36.72;;;6.35;;
23590;SDS011;11973;52.098;7.582;2023-02-04T04:52:56;35.05;;;6.90;;
23590;SDS011;11973;52.098;7.582;2023-02-04T04:55:22;34.90;;;6.65;;
23590;SDS011;11973;52.098;7.582;2023-02-04T04:57:48;44.45;;;6.38;;
23590;SDS011;11973;52.098;7.582;2023-02-04T05:00:15;40.38;;;6.72;;
23590;SDS011;11973;52.098;7.582;2023-02-04T05:02:44;42.05;;;7.53;;
23590;SDS011;11973;52.098;7.582;2023-02-04T05:05:11;35.17;;;7.47;;
23590;SDS011;11973;52.098;7.582;2023-02-04T05:07:37;39.08;;;7.25;;
23590;SDS011;11973;52.098;7.582;2023-02-04T05:10:04;46.15;;;7.85;;
23590;SDS011;11973;52.098;7.582;2023-02-04T05:12:30;41.92;;;7.05;;
23590;SDS011;11973;52.098;7.582;2023-02-04T05:14:56;36.30;;;7.10;;
23590;SDS011;11973;52.098;7.582;2023-02-04T05:17:21;38.20;;;6.40;;
23590;SDS011;11973;52.098;7.582;2023-02-04T05:19:47;37.53;;;7.32;;
23590;SDS011;11973;52.098;7.582;2023-02-04T05:22:13;37.15;;;7.22;;
23590;SDS011;11973;52.098;7.582;2023-02-04T05:24:38;43.45;;;8.05;;
23590;SDS011;11973;52.098;7.582;2023-02-04T05:27:04;32.65;;;6.93;;
23590;SDS011;11973;52.098;7.582;2023-02-04T05:29:30;42.33;;;7.68;;
23590;SDS011;11973;52.098;7.582;2023-02-04T06:17:49;39.40;;;7.88;;
23590;SDS011;11973;52.098;7.582;2023-02-04T06:20:17;40.13;;;8.65;;
23590;SDS011;11973;52.098;7.582;2023-02-04T06:22:43;32.15;;;7.30;;
23590;SDS011;11973;52.098;7.582;2023-02-04T06:25:08;50.85;;;8.95;;
23590;SDS011;11973;52.098;7.582;2023-02-04T06:27:34;45.47;;;8.93;;
23590;SDS011;11973;52.098;7.582;2023-02-04T06:30:00;35.83;;;7.85;;
23590;SDS011;11973;52.098;7.582;2023-02-04T06:32:25;38.15;;;7.15;;
23590;SDS011;11973;52.098;7.582;2023-02-04T06:34:51;36.78;;;7.85;;
23590;SDS011;11973;52.098;7.582;2023-02-04T06:37:17;38.22;;;7.90;;
23590;SDS011;11973;52.098;7.582;2023-02-04T06:39:42;39.97;;;7.72;;
23590;SDS011;11973;52.098;7.582;2023-02-04T06:42:08;27.60;;;6.60;;
23590;SDS011;11973;52.098;7.582;2023-02-04T06:44:34;35.22;;;6.50;;
23590;SDS011;11973;52.098;7.582;2023-02-04T06:47:00;33.25;;;6.90;;
23590;SDS011;11973;52.098;7.582;2023-02-04T06:49:25;31.67;;;6.70;;
23590;SDS011;11973;52.098;7.582;2023-02-04T06:51:51;34.60;;;7.03;;
23590;SDS011;11973;52.098;7.582;2023-02-04T06:54:17;38.47;;;6.80;;
23590;SDS011;11973;52.098;7.582;2023-02-04T06:56:43;29.92;;;7.18;;
23590;SDS011;11973;52.098;7.582;2023-02-04T06:59:09;40.05;;;7.18;;
23590;SDS011;11973;52.098;7.582;2023-02-04T07:01:35;38.13;;;7.13;;
23590;SDS011;11973;52.098;7.582;2023-02-04T07:04:00;40.00;;;7.55;;
23590;SDS011;11973;52.098;7.582;2023-02-04T07:06:26;37.75;;;7.65;;
23590;SDS011;11973;52.098;7.582;2023-02-04T07:08:52;35.92;;;7.30;;
23590;SDS011;11973;52.098;7.582;2023-02-04T07:11:18;37.40;;;7.65;;
23590;SDS011;11973;52.098;7.582;2023-02-04T07:13:43;36.05;;;7.13;;
23590;SDS011;11973;52.098;7.582;2023-02-04T07:16:09;36.33;;;6.82;;
23590;SDS011;11973;52.098;7.582;2023-02-04T07:18:35;28.23;;;6.43;;
23590;SDS011;11973;52.098;7.582;2023-02-04T07:21:00;27.88;;;6.47;;
23590;SDS011;11973;52.098;7.582;2023-02-04T07:23:26;41.83;;;8.38;;
23590;SDS011;11973;52.098;7.582;2023-02-04T07:25:52;25.75;;;6.05;;
23590;SDS011;11973;52.098;7.582;2023-02-04T07:28:20;34.63;;;7.18;;
23590;SDS011;11973;52.098;7.582;2023-02-04T07:30:46;33.63;;;6.93;;
23590;SDS011;11973;52.098;7.582;2023-02-04T07:33:12;42.40;;;8.02;;
23590;SDS011;11973;52.098;7.582;2023-02-04T07:35:37;32.53;;;7.35;;
23590;SDS011;11973;52.098;7.582;2023-02-04T07:38:03;32.75;;;8.23;;
23590;SDS011;11973;52.098;7.582;2023-02-04T07:40:30;38.50;;;9.43;;
23590;SDS011;11973;52.098;7.582;2023-02-04T07:42:56;33.80;;;7.22;;
23590;SDS011;11973;52.098;7.582;2023-02-04T07:45:22;31.30;;;6.45;;
23590;SDS011;11973;52.098;7.582;2023-02-04T07:47:48;24.23;;;5.30;;
23590;SDS011;11973;52.098;7.582;2023-02-04T07:50:14;21.10;;;4.60;;
23590;SDS011;11973;52.098;7.582;2023-02-04T07:52:40;23.38;;;4.70;;
23590;SDS011;11973;52.098;7.582;2023-02-04T07:55:06;14.73;;;3.22;;
23590;SDS011;11973;52.098;7.582;2023-02-04T07:57:32;16.40;;;4.10;;
23590;SDS011;11973;52.098;7.582;2023-02-04T07:59:58;9.10;;;2.83;;
23590;SDS011;11973;52.098;7.582;2023-02-04T08:02:24;11.00;;;3.20;;
23590;SDS011;11973;52.098;7.582;2023-02-04T08:04:50;8.50;;;2.92;;
23590;SDS011;11973;52.098;7.582;2023-02-04T08:07:16;13.00;;;3.42;;
23590;SDS011;11973;52.098;7.582;2023-02-04T08:09:42;16.38;;;2.78;;
23590;SDS011;11973;52.098;7.582;2023-02-04T08:12:08;11.20;;;2.75;;
23590;SDS011;11973;52.098;7.582;2023-02-04T08:14:33;9.23;;;2.80;;
23590;SDS011;11973;52.098;7.582;2023-02-04T08:16:59;11.32;;;3.30;;
23590;SDS011;11973;52.098;7.582;2023-02-04T08:19:25;9.50;;;2.65;;
23590;SDS011;11973;52.098;7.582;2023-02-04T08:21:51;7.40;;;2.42;;
23590;SDS011;11973;52.098;7.582;2023-02-04T08:24:17;6.15;;;2.42;;
23590;SDS011;11973;52.098;7.582;2023-02-04T08:26:43;10.48;;;2.45;;
23590;SDS011;11973;52.098;7.582;2023-02-04T08:29:09;5.93;;;2.28;;
23590;SDS011;11973;52.098;7.582;2023-02-04T08:31:35;6.85;;;1.92;;
23590;SDS011;11973;52.098;7.582;2023-02-04T08:34:02;6.40;;;2.25;;
23590;SDS011;11973;52.098;7.582;2023-02-04T08:36:29;8.30;;;2.08;;
23590;SDS011;11973;52.098;7.582;2023-02-04T08:38:55;7.85;;;2.65;;
23590;SDS011;11973;52.098;7.582;2023-02-04T08:41:21;6.32;;;2.03;;
23590;SDS011;11973;52.098;7.582;2023-02-04T08:43:46;5.35;;;2.00;;
23590;SDS011;11973;52.098;7.582;2023-02-04T08:46:12;3.35;;;1.40;;
23590;SDS011;11973;52.098;7.582;2023-02-04T08:48:38;4.32;;;1.35;;
23590;SDS011;11973;52.098;7.582;2023-02-04T08:51:04;3.05;;;1.70;;
23590;SDS011;11973;52.098;7.582;2023-02-04T08:53:29;4.93;;;1.85;;
23590;SDS011;11973;52.098;7.582;2023-02-04T08:55:55;2.58;;;1.40;;
23590;SDS011;11973;52.098;7.582;2023-02-04T08:58:21;5.35;;;1.50;;
23590;SDS011;11973;52.098;7.582;2023-02-04T09:00:47;2.55;;;1.23;;
23590;SDS011;11973;52.098;7.582;2023-02-04T09:03:12;4.82;;;1.30;;
23590;SDS011;11973;52.098;7.582;2023-02-04T09:05:38;5.55;;;2.22;;
23590;SDS011;11973;52.098;7.582;2023-02-04T09:08:04;6.22;;;1.83;;
23590;SDS011;11973;52.098;7.582;2023-02-04T09:10:31;3.80;;;1.55;;
23590;SDS011;11973;52.098;7.582;2023-02-04T09:12:56;2.42;;;2.10;;
23590;SDS011;11973;52.098;7.582;2023-02-04T09:15:22;1.92;;;1.67;;
23590;SDS011;11973;52.098;7.582;2023-02-04T09:17:49;5.25;;;2.00;;
23590;SDS011;11973;52.098;7.582;2023-02-04T09:20:17;6.55;;;1.67;;
23590;SDS011;11973;52.098;7.582;2023-02-04T09:22:43;2.38;;;1.38;;
23590;SDS011;11973;52.098;7.582;2023-02-04T09:25:09;7.07;;;1.77;;
23590;SDS011;11973;52.098;7.582;2023-02-04T09:27:34;3.42;;;2.00;;
23590;SDS011;11973;52.098;7.582;2023-02-04T09:30:00;1.88;;;1.50;;
23590;SDS011;11973;52.098;7.582;2023-02-04T09:32:26;4.97;;;1.80;;
23590;SDS011;11973;52.098;7.582;2023-02-04T09:34:51;3.53;;;1.80;;
23590;SDS011;11973;52.098;7.582;2023-02-04T09:37:17;6.10;;;2.17;;
23590;SDS011;11973;52.098;7.582;2023-02-04T09:39:43;4.43;;;2.38;;
23590;SDS011;11973;52.098;7.582;2023-02-04T09:42:10;3.42;;;2.00;;
23590;SDS011;11973;52.098;7.582;2023-02-04T09:44:38;5.20;;;2.25;;
23590;SDS011;11973;52.098;7.582;2023-02-04T09:47:04;2.17;;;1.92;;
23590;SDS011;11973;52.098;7.582;2023-02-04T09:49:30;4.97;;;1.88;;
23590;SDS011;11973;52.098;7.582;2023-02-04T09:51:57;4.85;;;1.70;;
23590;SDS011;11973;52.098;7.582;2023-02-04T09:54:23;1.95;;;1.65;;
23590;SDS011;11973;52.098;7.582;2023-02-04T09:56:49;2.17;;;1.83;;
23590;SDS011;11973;52.098;7.582;2023-02-04T09:59:21;3.00;;;1.70;;
23590;SDS011;11973;52.098;7.582;2023-02-04T10:01:54;6.63;;;1.98;;
23590;SDS011;11973;52.098;7.582;2023-02-04T10:04:23;3.60;;;2.03;;
23590;SDS011;11973;52.098;7.582;2023-02-04T10:06:49;1.83;;;1.70;;
23590;SDS011;11973;52.098;7.582;2023-02-04T10:09:15;2.92;;;1.73;;
23590;SDS011;11973;52.098;7.582;2023-02-04T10:11:42;2.10;;;1.92;;
23590;SDS011;11973;52.098;7.582;2023-02-04T10:14:17;4.15;;;1.70;;
23590;SDS011;11973;52.098;7.582;2023-02-04T10:16:47;3.92;;;2.00;;
23590;SDS011;11973;52.098;7.582;2023-02-04T10:19:18;2.00;;;1.90;;
23590;SDS011;11973;52.098;7.582;2023-02-04T10:21:44;4.00;;;2.13;;
23590;SDS011;11973;52.098;7.582;2023-02-04T10:24:20;3.22;;;1.77;;
23590;SDS011;11973;52.098;7.582;2023-02-04T10:26:52;1.88;;;1.77;;
23590;SDS011;11973;52.098;7.582;2023-02-04T10:29:19;4.18;;;2.10;;
23590;SDS011;11973;52.098;7.582;2023-02-04T10:31:49;2.90;;;1.70;;
23590;SDS011;11973;52.098;7.582;2023-02-04T10:34:34;2.80;;;1.70;;
23590;SDS011;11973;52.098;7.582;2023-02-04T10:37:19;1.80;;;1.70;;
23590;SDS011;11973;52.098;7.582;2023-02-04T10:39:45;2.25;;;2.13;;
23590;SDS011;11973;52.098;7.582;2023-02-04T10:42:20;3.83;;;2.70;;
23590;SDS011;11973;52.098;7.582;2023-02-04T10:44:47;3.42;;;2.45;;
23590;SDS011;11973;52.098;7.582;2023-02-04T10:47:18;5.97;;;2.45;;
23590;SDS011;11973;52.098;7.582;2023-02-04T10:49:52;3.85;;;2.30;;
23590;SDS011;11973;52.098;7.582;2023-02-04T10:52:34;3.15;;;2.78;;
23590;SDS011;11973;52.098;7.582;2023-02-04T10:55:03;2.67;;;2.47;;
23590;SDS011;11973;52.098;7.582;2023-02-04T10:57:30;2.95;;;2.42;;
23590;SDS011;11973;52.098;7.582;2023-02-04T11:00:03;5.63;;;2.65;;
23590;SDS011;11973;52.098;7.582;2023-02-04T11:05:02;6.55;;;2.45;;
23590;SDS011;11973;52.098;7.582;2023-02-04T11:07:28;6.00;;;3.10;;
23590;SDS011;11973;52.098;7.582;2023-02-04T11:09:54;6.50;;;2.88;;
23590;SDS011;11973;52.098;7.582;2023-02-04T11:18:06;2.90;;;2.65;;
23590;SDS011;11973;52.098;7.582;2023-02-04T11:20:34;6.63;;;3.20;;
23590;SDS011;11973;52.098;7.582;2023-02-04T11:33:44;5.18;;;2.75;;
23590;SDS011;11973;52.098;7.582;2023-02-04T11:36:12;4.38;;;2.88;;
23590;SDS011;11973;52.098;7.582;2023-02-04T11:38:43;3.00;;;2.60;;
23590;SDS011;11973;52.098;7.582;2023-02-04T11:41:14;3.30;;;2.38;;
23590;SDS011;11973;52.098;7.582;2023-02-04T11:43:44;2.65;;;2.47;;
23590;SDS011;11973;52.098;7.582;2023-02-04T11:46:14;3.70;;;2.83;;
23590;SDS011;11973;52.098;7.582;2023-02-04T11:48:41;3.28;;;2.85;;
23590;SDS011;11973;52.098;7.582;2023-02-04T11:51:11;5.68;;;2.80;;
23590;SDS011;11973;52.098;7.582;2023-02-04T11:53:39;4.63;;;2.28;;
23590;SDS011;11973;52.098;7.582;2023-02-04T11:56:05;2.63;;;1.90;;
23590;SDS011;11973;52.098;7.582;2023-02-04T11:58:31;2.30;;;2.10;;
23590;SDS011;11973;52.098;7.582;2023-02-04T12:00:57;3.25;;;2.20;;
23590;SDS011;11973;52.098;7.582;2023-02-04T12:03:27;6.82;;;2.97;;
23590;SDS011;11973;52.098;7.582;2023-02-04T12:05:54;4.85;;;2.15;;
23590;SDS011;11973;52.098;7.582;2023-02-04T12:11:05;5.00;;;2.22;;
23590;SDS011;11973;52.098;7.582;2023-02-04T12:13:45;2.40;;;2.20;;
23590;SDS011;11973;52.098;7.582;2023-02-04T12:16:14;2.80;;;2.60;;
23590;SDS011;11973;52.098;7.582;2023-02-04T12:18:40;3.15;;;2.40;;
23590;SDS011;11973;52.098;7.582;2023-02-04T12:21:05;2.30;;;2.20;;
23590;SDS011;11973;52.098;7.582;2023-02-04T12:23:31;2.55;;;1.98;;
23590;SDS011;11973;52.098;7.582;2023-02-04T12:25:57;3.38;;;2.17;;
23590;SDS011;11973;52.098;7.582;2023-02-04T12:28:23;2.58;;;2.22;;
23590;SDS011;11973;52.098;7.582;2023-02-04T12:30:49;2.38;;;2.17;;
23590;SDS011;11973;52.098;7.582;2023-02-04T12:33:15;2.63;;;2.25;;
23590;SDS011;11973;52.098;7.582;2023-02-04T12:35:41;4.43;;;2.55;;
23590;SDS011;11973;52.098;7.582;2023-02-04T12:38:07;2.63;;;2.30;;
23590;SDS011;11973;52.098;7.582;2023-02-04T12:40:33;4.72;;;2.33;;
23590;SDS011;11973;52.098;7.582;2023-02-04T12:42:59;4.25;;;2.10;;
23590;SDS011;11973;52.098;7.582;2023-02-04T12:45:25;2.13;;;2.00;;
23590;SDS011;11973;52.098;7.582;2023-02-04T12:47:50;5.80;;;2.50;;
23590;SDS011;11973;52.098;7.582;2023-02-04T12:50:16;2.60;;;2.40;;
23590;SDS011;11973;52.098;7.582;2023-02-04T12:52:47;3.95;;;2.13;;
23590;SDS011;11973;52.098;7.582;2023-02-04T12:55:14;2.60;;;1.95;;
23590;SDS011;11973;52.098;7.582;2023-02-04T12:57:40;2.55;;;2.08;;
23590;SDS011;11973;52.098;7.582;2023-02-04T13:00:06;4.85;;;2.10;;
23590;SDS011;11973;52.098;7.582;2023-02-04T13:02:32;3.53;;;2.22;;
23590;SDS011;11973;52.098;7.582;2023-02-04T13:04:58;2.97;;;2.40;;
23590;SDS011;11973;52.098;7.582;2023-02-04T13:07:24;2.65;;;2.38;;
23590;SDS011;11973;52.098;7.582;2023-02-04T13:09:50;2.38;;;2.20;;
23590;SDS011;11973;52.098;7.582;2023-02-04T13:12:16;2.90;;;2.10;;
23590;SDS011;11973;52.098;7.582;2023-02-04T13:14:42;2.45;;;2.20;;
23590;SDS011;11973;52.098;7.582;2023-02-04T13:17:08;2.55;;;2.35;;
23590;SDS011;11973;52.098;7.582;2023-02-04T13:19:34;2.72;;;2.40;;
23590;SDS011;11973;52.098;7.582;2023-02-04T13:22:00;6.45;;;2.92;;
23590;SDS011;11973;52.098;7.582;2023-02-04T13:24:26;2.17;;;2.03;;
23590;SDS011;11973;52.098;7.582;2023-02-04T13:26:52;2.13;;;2.03;;
23590;SDS011;11973;52.098;7.582;2023-02-04T13:29:18;2.42;;;2.28;;
23590;SDS011;11973;52.098;7.582;2023-02-04T13:31:45;4.45;;;2.63;;
23590;SDS011;11973;52.098;7.582;2023-02-04T13:34:11;3.65;;;2.03;;
23590;SDS011;11973;52.098;7.582;2023-02-04T13:36:37;3.20;;;2.10;;
23590;SDS011;11973;52.098;7.582;2023-02-04T13:39:03;2.97;;;2.42;;
23590;SDS011;11973;52.098;7.582;2023-02-04T13:41:29;5.85;;;2.38;;
23590;SDS011;11973;52.098;7.582;2023-02-04T13:43:55;7.95;;;2.60;;
23590;SDS011;11973;52.098;7.582;2023-02-04T13:46:21;6.20;;;2.00;;
23590;SDS011;11973;52.098;7.582;2023-02-04T13:48:47;3.38;;;2.10;;
23590;SDS011;11973;52.098;7.582;2023-02-04T13:51:14;7.50;;;2.38;;
23590;SDS011;11973;52.098;7.582;2023-02-04T13:53:40;6.35;;;2.45;;
23590;SDS011;11973;52.098;7.582;2023-02-04T13:56:06;5.45;;;2.22;;
23590;SDS011;11973;52.098;7.582;2023-02-04T13:58:32;4.10;;;2.50;;
23590;SDS011;11973;52.098;7.582;2023-02-04T14:00:58;11.27;;;5.15;;
23590;SDS011;11973;52.098;7.582;2023-02-04T14:03:24;6.05;;;4.68;;
23590;SDS011;11973;52.098;7.582;2023-02-04T14:05:50;6.93;;;3.42;;
23590;SDS011;11973;52.098;7.582;2023-02-04T14:08:17;3.63;;;2.38;;
23590;SDS011;11973;52.098;7.582;2023-02-04T14:10:43;13.20;;;7.82;;
23590;SDS011;11973;52.098;7.582;2023-02-04T14:13:08;19.70;;;11.95;;
23590;SDS011;11973;52.098;7.582;2023-02-04T14:15:34;17.30;;;10.38;;
23590;SDS011;11973;52.098;7.582;2023-02-04T14:18:02;6.43;;;5.90;;
23590;SDS011;11973;52.098;7.582;2023-02-04T14:20:29;10.02;;;4.68;;
23590;SDS011;11973;52.098;7.582;2023-02-04T14:22:55;3.08;;;2.17;;
23590;SDS011;11973;52.098;7.582;2023-02-04T14:25:20;7.07;;;5.38;;
23590;SDS011;11973;52.098;7.582;2023-02-04T14:27:47;3.17;;;2.85;;
23590;SDS011;11973;52.098;7.582;2023-02-04T14:30:16;4.65;;;3.92;;
23590;SDS011;11973;52.098;7.582;2023-02-04T14:32:43;3.22;;;2.92;;
23590;SDS011;11973;52.098;7.582;2023-02-04T14:35:09;6.00;;;5.53;;
23590;SDS011;11973;52.098;7.582;2023-02-04T14:37:35;2.20;;;1.85;;
23590;SDS011;11973;52.098;7.582;2023-02-04T14:40:01;2.30;;;2.15;;
23590;SDS011;11973;52.098;7.582;2023-02-04T14:42:26;4.55;;;2.65;;
23590;SDS011;11973;52.098;7.582;2023-02-04T14:44:52;3.17;;;2.15;;
23590;SDS011;11973;52.098;7.582;2023-02-04T14:47:18;1.75;;;1.75;;
23590;SDS011;11973;52.098;7.582;2023-02-04T14:49:43;2.03;;;1.92;;
23590;SDS011;11973;52.098;7.582;2023-02-04T14:52:09;1.90;;;1.77;;
23590;SDS011;11973;52.098;7.582;2023-02-04T14:54:36;1.90;;;1.70;;
23590;SDS011;11973;52.098;7.582;2023-02-04T14:57:02;2.42;;;1.63;;
23590;SDS011;11973;52.098;7.582;2023-02-04T14:59:28;2.80;;;1.63;;
23590;SDS011;11973;52.098;7.582;2023-02-04T15:01:54;1.77;;;1.67;;
23590;SDS011;11973;52.098;7.582;2023-02-04T15:04:20;2.70;;;2.03;;
23590;SDS011;11973;52.098;7.582;2023-02-04T15:06:45;2.13;;;1.73;;
23590;SDS011;11973;52.098;7.582;2023-02-04T15:09:11;1.95;;;1.73;;
23590;SDS011;11973;52.098;7.582;2023-02-04T15:11:37;3.25;;;1.90;;
23590;SDS011;11973;52.098;7.582;2023-02-04T15:14:03;1.98;;;1.88;;
23590;SDS011;11973;52.098;7.582;2023-02-04T15:16:28;3.05;;;1.83;;
23590;SDS011;11973;52.098;7.582;2023-02-04T15:18:54;4.22;;;1.83;;
23590;SDS011;11973;52.098;7.582;2023-02-04T15:21:20;2.92;;;2.05;;
23590;SDS011;11973;52.098;7.582;2023-02-04T15:23:46;3.83;;;2.40;;
23590;SDS011;11973;52.098;7.582;2023-02-04T15:26:14;2.40;;;2.20;;
23590;SDS011;11973;52.098;7.582;2023-02-04T15:28:40;3.03;;;2.42;;
23590;SDS011;11973;52.098;7.582;2023-02-04T15:31:06;4.32;;;4.13;;
23590;SDS011;11973;52.098;7.582;2023-02-04T15:33:32;3.10;;;3.00;;
23590;SDS011;11973;52.098;7.582;2023-02-04T15:35:57;2.55;;;2.45;;
23590;SDS011;11973;52.098;7.582;2023-02-04T15:38:23;4.10;;;3.00;;
23590;SDS011;11973;52.098;7.582;2023-02-04T15:40:49;2.60;;;2.50;;
23590;SDS011;11973;52.098;7.582;2023-02-04T15:43:15;2.50;;;2.40;;
23590;SDS011;11973;52.098;7.582;2023-02-04T15:45:40;2.42;;;2.22;;
23590;SDS011;11973;52.098;7.582;2023-02-04T15:48:08;4.15;;;2.42;;
23590;SDS011;11973;52.098;7.582;2023-02-04T15:50:35;2.45;;;2.35;;
23590;SDS011;11973;52.098;7.582;2023-02-04T15:53:01;2.30;;;2.17;;